Amritsar Air Force Station
VIAR : now visible

Airfield :











YOU CAN JOIN US ON...

 
LOGIN :

Register | Disclaimer

   EN    FR    IT 

 









Legend :    VFR   Marginal VFR   IFR   Intensive IFR   Very Intensive IFR
Visi :
Ceiling :
>= 8 km
>= 3000ft
5 to 8 km
1000 to 3000 ft
1500m to 5 km
500 to 1000 ft
800 to 1500m
200 to 500 ft
< 800m
< 200 ft
Symbols :   Thunderstorms  Fog  Heavy snow  Heavy precipitations  Wind > 20 kt







- Airport Elevation : 756 ft
- IATA code : ATQ


VIAR - Amritsar Air Force Station

CURRENT METAR :
  • 221000Z 03008KT 3000 -TSRA SCT030 FEW040CB SCT100 31/27 Q1000 TEMPO TSRA

EXPIRED METARs :
  • 220930Z 09007KT 1700 -TSRA SCT030 FEW040CB BKN100 29/26 Q1001 TEMPO TSRA
  • 220922Z 10006KT 1700 -TSRA SCT030 FEW040CB BKN100 31/26 Q1001 TEMPO TSRA
  • 220909Z VRB02KT 2000 HZ SCT030 FEW040CB SCT100 35/26 Q1001 TEMPO TSRA
  • 220900Z 36003KT 2000 HZ SCT030 SCT100 35/26 Q1001 NOSIG
  • 220830Z VRB02KT 2000 HZ SCT040 SCT100 35/25 Q1001 NOSIG
  • 220800Z VRB02KT 2000 HZ FEW040CB SCT040 SCT100 34/25 Q1002 NOSIG
  • 220730Z VRB02KT 2000 HZ FEW040CB SCT040 BKN100 34/25 Q1002 NOSIG

TAF TAF VIAR
Valid from the 22 at 09:00 until the 22 at 18:00 UTC


220800Z 2209/2218 09006KT 2500 HZ -RA SCT035 BKN100
BECMG 2210/2214 1500 TSRA SCT030 FEW035CB OVC090
BECMG 2215/2217 VRB02KT 3000 HZ SCT040 BKN100
VIDF FIR / Asia



MET'MAP, your aeronautical weather chart ! - Copyright ORBIFLY December 2007 - Disclaimer

ORBIFLY MET'MAP TEAM :

Programming & Development : Alexandra Zaïnal
Concept & Development : Baudouin d'Aumeries
Co-Development & Prog : Marc-Olivier Méhu
Technical & hardware support : Manuel Goepfert

Contact : metmap@orbifly.com




SOURCES & CREDITS :

   NOAA       Earth
Advisory